Time;durP1;ratioP1;P1;durP2;ratioP2;P2;SDS_P1;SDS_P2;PMS_P1;PMS_P2;Temp;Humidity;BMP_temperature;BMP_pressure;BME280_temperature;BME280_humidity;BME280_pressure;Samples;Min_cycle;Max_cycle;Signal;HPM_P1;HPM_P2
2022/01/11 00:00:36;;;;;;;9.95;5.55;;;3.10;83.30;;;1.78;79.29;96231.00;4019096;34;20083;-84
2022/01/11 00:03:14;;;;;;;9.07;5.63;;;3.10;83.50;;;1.80;79.08;96236.22;4009321;34;20008;-85
2022/01/11 00:08:14;;;;;;;8.65;6.18;;;3.10;83.40;;;1.79;79.34;96240.78;4004621;34;20011;-84
2022/01/11 00:10:53;;;;;;;8.88;5.38;;;3.10;83.50;;;1.79;79.31;96246.16;3995184;34;20324;-84
2022/01/11 00:13:20;;;;;;;14.70;5.88;;;3.10;83.40;;;1.78;78.76;96244.50;4041307;34;20055;-85
2022/01/11 00:15:47;;;;;;;8.65;5.75;;;3.10;83.30;;;1.79;79.31;96246.16;4003654;34;20285;-85
2022/01/11 00:18:15;;;;;;;9.80;5.60;;;3.10;83.40;;;1.80;79.18;96249.72;4016464;34;20072;-84
2022/01/11 00:20:41;;;;;;;10.43;6.05;;;3.10;83.30;;;1.79;79.25;96245.34;4060725;34;20278;-85
2022/01/11 00:25:38;;;;;;;9.40;6.25;;;3.10;83.50;;;1.79;78.93;96251.56;4046041;34;20317;-85
2022/01/11 00:28:06;;;;;;;9.18;5.22;;;3.10;83.30;;;1.77;79.35;96245.53;3977461;34;20013;-85
2022/01/11 00:30:38;;;;;;;9.40;5.80;;;3.10;83.50;;;1.79;79.27;96262.38;3997066;34;20017;-85
2022/01/11 00:33:09;;;;;;;12.70;5.93;;;3.10;83.40;;;1.79;78.99;96254.25;3998160;34;20039;-85
2022/01/11 00:35:44;;;;;;;9.02;6.03;;;3.10;83.30;;;1.79;79.10;96262.38;4022390;34;20043;-84
2022/01/11 00:38:17;;;;;;;9.48;5.70;;;3.10;83.20;;;1.79;79.08;96265.06;4062985;34;20008;-84
2022/01/11 00:40:49;;;;;;;11.43;5.85;;;3.10;83.50;;;1.79;79.51;96265.06;4066549;34;20015;-84
2022/01/11 00:43:20;;;;;;;10.05;5.60;;;3.10;83.50;;;1.80;79.14;96264.03;4018907;34;20008;-84
2022/01/11 00:45:47;;;;;;;9.18;5.82;;;3.10;83.60;;;1.79;79.58;96265.06;4019538;34;20092;-85
2022/01/11 00:48:13;;;;;;;8.85;6.18;;;3.10;83.60;;;1.79;79.49;96272.34;3997947;34;20292;-85
2022/01/11 00:50:40;;;;;;;9.38;6.45;;;3.10;83.80;;;1.79;79.67;96267.75;3998423;34;20329;-85
2022/01/11 00:53:08;;;;;;;9.52;5.97;;;3.10;83.80;;;1.78;79.62;96271.50;3998258;34;20004;-85
2022/01/11 00:55:35;;;;;;;9.38;5.53;;;3.10;83.70;;;1.78;79.26;96276.91;3997313;34;20324;-84
2022/01/11 00:58:02;;;;;;;8.27;5.80;;;3.10;83.70;;;1.79;79.49;96275.03;4018947;34;20000;-85
2022/01/11 01:00:30;;;;;;;10.23;6.35;;;3.10;83.70;;;1.79;79.63;96283.97;3977795;34;20296;-85
2022/01/11 01:02:57;;;;;;;9.25;5.90;;;3.10;83.70;;;1.78;79.28;96276.91;3999562;34;20004;-84
2022/01/11 01:05:24;;;;;;;10.50;6.85;;;3.10;83.60;;;1.79;79.27;96278.56;3999075;34;20199;-85
2022/01/11 01:07:51;;;;;;;8.60;5.63;;;3.10;83.60;;;1.77;79.30;96277.94;3979849;34;20354;-83
2022/01/11 01:10:26;;;;;;;9.98;6.03;;;3.10;83.50;;;1.78;79.09;96279.59;3980071;34;20020;-83
2022/01/11 01:12:54;;;;;;;9.85;6.80;;;3.10;83.50;;;1.77;79.28;96280.63;4007670;34;20932;-83
2022/01/11 01:15:22;;;;;;;7.68;5.35;;;3.10;83.50;;;1.77;79.26;96277.94;4020718;34;20292;-83
2022/01/11 01:17:49;;;;;;;11.88;6.90;;;3.10;83.40;;;1.77;78.77;96279.81;4018403;34;20313;-83
2022/01/11 01:20:15;;;;;;;8.30;5.90;;;3.10;83.30;;;1.77;79.27;96280.63;4017480;34;19993;-83
2022/01/11 01:22:42;;;;;;;10.80;6.43;;;3.10;83.50;;;1.75;78.96;96263.81;4039803;34;20295;-83
2022/01/11 01:25:10;;;;;;;9.80;6.53;;;3.10;83.60;;;1.77;79.01;96279.81;4015473;34;20306;-84
2022/01/11 01:27:36;;;;;;;11.57;6.10;;;3.10;83.30;;;1.77;79.02;96285.22;3997415;34;20032;-83
2022/01/11 01:30:05;;;;;;;9.27;6.68;;;3.10;83.50;;;1.77;79.23;96280.63;3997542;34;20278;-83
2022/01/11 01:32:31;;;;;;;9.10;5.93;;;3.10;83.50;;;1.76;79.45;96278.97;4055072;34;20004;-84
2022/01/11 01:35:02;;;;;;;9.55;6.30;;;3.10;83.70;;;1.76;79.24;96287.06;3999878;34;20274;-84
2022/01/11 01:37:29;;;;;;;8.63;6.20;;;3.10;83.70;;;1.78;79.45;96289.56;4019681;34;20004;-85
2022/01/11 01:39:55;;;;;;;8.85;6.03;;;3.10;83.70;;;1.77;79.57;96296.84;4018529;34;20291;-84
2022/01/11 01:42:28;;;;;;;8.93;5.97;;;3.10;83.70;;;1.75;79.55;96293.50;4017592;34;20059;-84
2022/01/11 01:44:55;;;;;;;9.48;6.05;;;3.10;83.80;;;1.75;79.28;96298.91;4017249;34;20299;-84
2022/01/11 01:47:22;;;;;;;8.90;5.78;;;3.10;83.60;;;1.76;79.18;96300.56;4040021;34;20327;-84
2022/01/11 01:49:48;;;;;;;9.63;5.88;;;3.10;83.70;;;1.77;79.43;96306.81;3995851;34;20000;-84
2022/01/11 01:52:15;;;;;;;8.00;5.63;;;3.10;83.80;;;1.75;79.75;96309.69;3973733;34;20016;-85
2022/01/11 01:54:42;;;;;;;8.63;5.97;;;3.10;83.70;;;1.77;79.53;96307.63;3993679;34;20308;-85
2022/01/11 01:57:08;;;;;;;9.60;6.68;;;3.10;83.80;;;1.76;79.29;96310.56;4036945;34;20036;-84
2022/01/11 01:59:35;;;;;;;8.93;6.65;;;3.10;83.80;;;1.76;79.65;96305.97;3972700;34;20316;-84
2022/01/11 02:02:02;;;;;;;8.27;5.47;;;3.10;83.80;;;1.76;79.41;96310.56;3984232;34;20211;-84
2022/01/11 02:04:28;;;;;;;8.93;5.82;;;3.10;83.90;;;1.76;79.94;96315.94;4019642;34;20106;-83
2022/01/11 02:06:54;;;;;;;9.00;6.03;;;3.10;83.80;;;1.75;79.56;96315.09;3994244;34;20005;-85
2022/01/11 02:09:21;;;;;;;10.30;6.53;;;3.10;83.80;;;1.75;79.52;96309.69;3995241;34;20282;-84
2022/01/11 02:11:47;;;;;;;10.57;6.80;;;3.10;83.80;;;1.75;79.67;96311.59;4011567;34;20000;-84
2022/01/11 02:14:15;;;;;;;10.30;6.60;;;3.10;83.70;;;1.74;79.56;96313.47;4004241;34;20306;-85
2022/01/11 02:16:41;;;;;;;9.93;6.50;;;3.10;83.60;;;1.73;79.26;96309.13;4022384;34;20064;-84
2022/01/11 02:19:08;;;;;;;9.38;5.97;;;3.10;83.50;;;1.75;79.09;96309.69;3994867;34;20080;-84
2022/01/11 02:21:35;;;;;;;9.70;6.65;;;3.10;83.30;;;1.75;79.16;96309.69;3999193;34;20375;-84
2022/01/11 02:24:01;;;;;;;11.57;6.30;;;3.10;83.90;;;1.73;78.92;96311.81;4009937;34;20005;-84
2022/01/11 02:26:32;;;;;;;11.55;6.25;;;3.10;83.50;;;1.73;79.49;96317.22;3998120;34;20305;-84
2022/01/11 02:28:58;;;;;;;10.10;6.28;;;3.10;83.40;;;1.74;78.97;96318.03;4018242;34;20697;-85
2022/01/11 02:31:25;;;;;;;9.23;6.25;;;3.00;83.20;;;1.73;79.25;96310.97;3977470;34;20285;-85
2022/01/11 02:33:58;;;;;;;10.15;6.28;;;3.10;83.40;;;1.73;79.23;96319.91;3979877;34;20000;-84
2022/01/11 02:37:04;;;;;;;8.50;6.03;;;3.10;83.60;;;1.74;78.96;96321.56;4007623;34;20020;-84
2022/01/11 02:39:36;;;;;;;9.75;6.20;;;3.10;83.60;;;1.72;79.09;96320.94;4006822;34;20079;-84
2022/01/11 02:42:08;;;;;;;10.88;7.60;;;3.10;83.40;;;1.73;78.96;96327.16;4004163;34;20285;-84
2022/01/11 02:44:38;;;;;;;10.40;6.97;;;3.10;83.20;;;1.73;79.07;96319.06;3999818;34;20004;-84
2022/01/11 02:47:06;;;;;;;10.73;6.88;;;3.00;83.60;;;1.72;78.89;96320.09;3977638;34;20598;-84
2022/01/11 02:49:35;;;;;;;9.70;6.53;;;3.00;83.20;;;1.72;79.50;96318.25;3999426;34;20293;-85
2022/01/11 02:52:16;;;;;;;11.23;6.80;;;3.10;84.40;;;1.71;78.62;96319.28;3965978;34;20291;-84
2022/01/11 02:54:47;;;;;;;10.70;7.25;;;3.00;83.00;;;1.72;79.14;96315.56;3957899;34;20288;-84
2022/01/11 02:57:19;;;;;;;9.90;6.75;;;3.00;83.30;;;1.72;79.34;96320.09;3978655;34;20040;-84
2022/01/11 02:59:47;;;;;;;11.10;6.30;;;3.00;83.30;;;1.71;79.09;96313.88;3977610;34;20292;-85
2022/01/11 03:02:15;;;;;;;10.02;6.45;;;3.10;83.60;;;1.71;79.40;96319.28;3978075;34;20200;-83
2022/01/11 03:04:44;;;;;;;10.13;6.38;;;3.00;83.50;;;1.71;79.28;96321.97;4023783;34;20008;-84
2022/01/11 03:07:11;;;;;;;10.07;6.70;;;3.00;83.50;;;1.72;79.29;96323.66;4004384;34;20578;-84
2022/01/11 03:09:59;;;;;;;11.70;7.07;;;3.00;84.40;;;1.71;79.06;96329.22;4022806;34;20363;-85
2022/01/11 03:12:27;;;;;;;9.25;6.30;;;3.00;83.50;;;1.71;79.50;96321.13;4029652;34;20018;-84
2022/01/11 03:14:54;;;;;;;12.13;7.18;;;3.10;83.60;;;1.70;79.42;96331.13;3979131;34;20030;-84
2022/01/11 03:17:21;;;;;;;11.15;6.80;;;3.00;83.50;;;1.72;79.52;96337.13;4003347;34;20211;-86
2022/01/11 03:19:48;;;;;;;11.27;7.30;;;3.00;83.80;;;1.72;79.34;96339.84;4023851;34;20344;-85
2022/01/11 03:22:14;;;;;;;10.80;6.50;;;3.10;83.70;;;1.72;79.21;96337.13;4023682;34;20334;-85
2022/01/11 03:24:41;;;;;;;10.43;6.50;;;3.00;83.60;;;1.70;79.19;96339.22;4018248;34;20292;-85
2022/01/11 03:27:08;;;;;;;9.35;6.30;;;3.10;83.90;;;1.72;79.60;96337.13;3996359;34;20016;-84
2022/01/11 03:29:35;;;;;;;8.93;6.17;;;3.10;83.80;;;1.71;79.29;96330.06;3993279;34;20170;-85
2022/01/11 03:32:04;;;;;;;8.65;6.03;;;3.00;83.60;;;1.70;79.39;96339.22;3996345;34;20353;-85
2022/01/11 03:34:32;;;;;;;9.40;6.38;;;3.10;83.90;;;1.71;79.32;96340.03;3995329;34;20296;-84
2022/01/11 03:36:58;;;;;;;11.20;7.15;;;3.10;83.80;;;1.70;79.27;96339.22;4060528;34;20275;-85
2022/01/11 03:39:26;;;;;;;10.82;7.07;;;3.00;83.70;;;1.71;79.42;96338.19;3995411;34;20308;-85
2022/01/11 03:41:53;;;;;;;11.25;7.45;;;3.10;83.80;;;1.71;79.79;96346.28;3995713;34;20036;-85
2022/01/11 03:44:19;;;;;;;8.93;5.97;;;3.00;83.60;;;1.70;79.27;96341.91;4037961;34;20069;-85
2022/01/11 03:46:46;;;;;;;10.57;7.45;;;3.00;83.70;;;1.70;79.82;96344.63;4038933;34;20289;-85
2022/01/11 03:49:12;;;;;;;11.07;6.80;;;3.10;83.80;;;1.72;79.57;96349.78;3995451;34;20075;-85
2022/01/11 03:51:39;;;;;;;10.93;6.53;;;3.00;83.80;;;1.70;79.74;96344.63;3995914;34;20309;-85
2022/01/11 03:54:13;;;;;;;9.65;6.32;;;3.10;83.90;;;1.69;79.41;96351.88;4006160;34;20346;-85
2022/01/11 03:56:55;;;;;;;10.85;6.72;;;3.00;83.70;;;1.72;79.75;96357.88;4032284;34;20084;-84
2022/01/11 03:59:25;;;;;;;13.80;6.35;;;3.00;83.80;;;1.71;79.40;96357.06;4022607;34;20280;-85
2022/01/11 04:01:51;;;;;;;9.35;6.10;;;3.00;83.90;;;1.71;79.48;96357.06;4023180;34;20319;-85
2022/01/11 04:04:18;;;;;;;9.10;6.18;;;3.10;84.00;;;1.71;79.70;96359.78;4023189;34;20028;-84
2022/01/11 04:06:45;;;;;;;9.32;6.15;;;3.00;83.70;;;1.72;79.35;96363.28;3992086;34;20071;-84
2022/01/11 04:09:12;;;;;;;9.00;6.85;;;3.10;84.00;;;1.72;79.38;96368.69;4026678;34;20012;-84
2022/01/11 04:11:39;;;;;;;8.98;5.75;;;3.00;83.60;;;1.71;79.34;96358.91;4048196;34;20193;-84
2022/01/11 04:14:06;;;;;;;9.77;6.57;;;3.00;83.60;;;1.72;79.48;96374.06;4025435;34;20072;-85
2022/01/11 04:16:32;;;;;;;9.38;6.45;;;3.00;83.70;;;1.71;79.48;96370.56;4025650;34;20378;-85
2022/01/11 04:19:01;;;;;;;10.90;6.80;;;3.00;83.60;;;1.69;79.33;96364.53;4025592;34;20082;-85
2022/01/11 04:21:28;;;;;;;9.48;6.47;;;3.00;83.60;;;1.72;79.51;96374.06;3981174;34;20005;-85
2022/01/11 04:23:56;;;;;;;10.13;6.80;;;3.00;83.60;;;1.70;79.98;96377.00;4025015;34;20087;-84
2022/01/11 04:26:24;;;;;;;10.65;6.85;;;3.00;83.50;;;1.69;79.43;96375.34;4007573;34;20071;-85
2022/01/11 04:28:51;;;;;;;8.68;6.35;;;3.00;83.70;;;1.70;79.62;96377.00;4027482;34;20338;-86
2022/01/11 04:31:18;;;;;;;10.77;6.57;;;3.10;83.80;;;1.70;79.29;96377.00;4024039;34;20290;-85
2022/01/11 04:33:45;;;;;;;10.35;6.70;;;3.10;83.60;;;1.69;79.37;96386.13;4022914;34;20000;-85
2022/01/11 04:36:13;;;;;;;8.80;6.07;;;3.00;83.50;;;1.69;79.37;96383.44;4023926;34;20275;-85
2022/01/11 04:38:40;;;;;;;9.25;6.25;;;3.00;83.40;;;1.69;79.09;96392.34;4022573;34;20328;-85
2022/01/11 04:41:07;;;;;;;9.55;5.75;;;3.00;83.40;;;1.70;79.36;96390.50;4023015;34;20000;-84
2022/01/11 04:43:39;;;;;;;9.45;6.18;;;3.00;83.50;;;1.67;78.83;96382.81;4046059;34;20293;-85
2022/01/11 04:46:05;;;;;;;9.57;6.35;;;3.00;83.30;;;1.69;79.11;96380.72;4022885;34;20083;-85
2022/01/11 04:48:32;;;;;;;9.88;6.43;;;3.00;83.20;;;1.69;79.28;96394.22;4023269;34;20633;-85
2022/01/11 04:51:03;;;;;;;9.63;6.55;;;3.00;83.20;;;1.69;79.08;96396.94;4025720;34;20323;-85
2022/01/11 04:53:30;;;;;;;10.95;6.95;;;3.00;83.20;;;1.68;78.78;96400.66;4021704;34;20310;-85
2022/01/11 04:55:57;;;;;;;9.55;6.15;;;3.00;83.00;;;1.66;79.34;96400.03;4021081;34;20379;-85
2022/01/11 04:58:24;;;;;;;10.90;6.95;;;3.00;83.20;;;1.66;79.36;96403.59;4019655;34;20334;-86
2022/01/11 05:00:50;;;;;;;11.05;6.88;;;3.00;83.30;;;1.67;78.87;96412.50;3992940;34;20037;-85
2022/01/11 05:03:19;;;;;;;9.30;6.18;;;3.00;83.10;;;1.67;78.85;96407.94;4014326;34;20083;-85
2022/01/11 05:05:48;;;;;;;10.23;6.35;;;3.00;83.20;;;1.66;79.04;96410.84;3996628;34;20295;-85
2022/01/11 05:08:14;;;;;;;9.95;6.18;;;3.00;83.20;;;1.67;78.57;96415.19;3983422;34;20148;-84
2022/01/11 05:10:44;;;;;;;10.43;6.57;;;3.00;83.00;;;1.66;78.97;96421.63;4006672;34;20381;-85
2022/01/11 05:13:15;;;;;;;10.55;6.93;;;3.00;83.20;;;1.67;78.94;96420.59;4011723;34;20283;-84
2022/01/11 05:15:42;;;;;;;9.95;5.85;;;3.00;83.00;;;1.65;78.95;96428.91;3989816;34;20011;-85
2022/01/11 05:18:09;;;;;;;10.70;7.18;;;3.00;83.20;;;1.66;78.77;96424.31;3989900;34;20360;-85
2022/01/11 05:20:37;;;;;;;10.38;6.68;;;3.00;83.30;;;1.65;78.96;96428.06;3991085;34;20442;-86
2022/01/11 05:23:04;;;;;;;9.25;6.32;;;3.00;83.30;;;1.66;79.21;96429.72;3968695;34;20219;-85
2022/01/11 05:25:31;;;;;;;10.80;6.53;;;3.00;83.50;;;1.64;79.27;96429.09;4009879;34;20331;-87
2022/01/11 05:27:59;;;;;;;9.85;6.00;;;3.00;83.50;;;1.65;79.23;96436.16;3989902;34;20008;-84
2022/01/11 05:30:27;;;;;;;9.35;6.18;;;3.00;83.50;;;1.65;78.97;96438.84;3990458;34;20625;-86
2022/01/11 05:32:54;;;;;;;11.88;6.88;;;3.00;83.30;;;1.66;78.91;96432.41;3968045;34;20142;-86
2022/01/11 05:35:21;;;;;;;10.55;7.05;;;3.00;83.30;;;1.64;79.22;96437.19;3989707;34;20304;-86
2022/01/11 05:37:48;;;;;;;9.95;6.45;;;3.00;83.40;;;1.64;79.15;96443.44;4011395;34;20408;-86
2022/01/11 05:40:16;;;;;;;10.55;6.88;;;3.00;83.30;;;1.64;79.13;96448.81;3989751;34;20389;-86
2022/01/11 05:42:43;;;;;;;9.65;6.10;;;3.00;83.20;;;1.64;78.89;96445.28;3968040;34;20386;-86
2022/01/11 05:45:12;;;;;;;9.73;6.43;;;3.00;83.10;;;1.64;79.09;96453.38;3990777;34;20282;-86
2022/01/11 05:47:38;;;;;;;11.60;6.85;;;3.00;83.30;;;1.64;78.88;96458.78;4013874;34;20308;-86
2022/01/11 05:50:08;;;;;;;10.48;7.30;;;3.00;83.40;;;1.64;78.74;96456.94;4014892;34;20309;-87
2022/01/11 05:52:35;;;;;;;12.77;7.32;;;3.00;83.20;;;1.64;79.32;96465.03;3978041;34;20015;-87
2022/01/11 05:55:03;;;;;;;11.50;6.97;;;3.00;83.30;;;1.65;79.19;96465.84;3993291;34;20007;-87
2022/01/11 05:57:29;;;;;;;10.25;6.82;;;3.00;83.30;;;1.64;79.23;96469.56;3992738;34;20338;-86
2022/01/11 05:59:56;;;;;;;10.30;6.25;;;3.00;83.40;;;1.63;79.16;96473.31;3993239;34;20276;-86
2022/01/11 06:02:22;;;;;;;12.70;7.47;;;3.00;83.30;;;1.64;78.98;96474.97;4013854;34;20000;-87
2022/01/11 06:04:49;;;;;;;9.30;6.57;;;3.00;83.30;;;1.63;78.68;96476.00;3995768;34;20011;-87
2022/01/11 06:07:16;;;;;;;11.35;6.30;;;3.00;83.20;;;1.64;79.43;96491.16;4014372;34;20409;-86
2022/01/11 06:09:42;;;;;;;11.93;6.85;;;3.00;83.40;;;1.62;78.92;96487.84;4012081;34;19996;-87
2022/01/11 06:12:09;;;;;;;11.68;7.00;;;3.00;83.40;;;1.63;79.00;96498.44;4015695;34;20362;-86
2022/01/11 06:14:36;;;;;;;11.50;7.15;;;3.00;83.30;;;1.63;79.39;96503.00;4015150;34;20355;-86
2022/01/11 06:17:03;;;;;;;11.32;6.53;;;3.00;83.30;;;1.62;78.64;96504.03;4015875;34;20319;-86
2022/01/11 06:19:31;;;;;;;12.82;7.95;;;3.00;83.00;;;1.63;79.37;96501.13;4015190;34;20039;-86
2022/01/11 06:22:03;;;;;;;12.55;6.80;;;3.00;83.30;;;1.62;78.93;96509.41;4027859;34;20382;-86
2022/01/11 06:24:29;;;;;;;10.90;7.18;;;3.00;83.00;;;1.63;79.04;96511.09;4014976;34;20059;-87
2022/01/11 06:26:56;;;;;;;12.23;7.35;;;3.00;83.30;;;1.63;79.40;96517.34;4015324;34;20007;-86
2022/01/11 06:29:22;;;;;;;13.07;7.82;;;2.90;83.30;;;1.63;79.08;96524.56;4020751;34;20012;-86
2022/01/11 06:31:49;;;;;;;11.88;6.93;;;3.00;83.20;;;1.63;78.80;96525.44;4014365;34;20498;-87
2022/01/11 06:34:15;;;;;;;10.20;6.13;;;3.00;83.20;;;1.63;78.97;96524.56;3971038;34;20017;-86
2022/01/11 06:36:42;;;;;;;10.80;6.80;;;3.00;83.30;;;1.62;79.24;96531.84;3993426;34;20393;-84
2022/01/11 06:39:08;;;;;;;11.30;6.78;;;3.00;83.40;;;1.61;78.64;96535.59;4014535;34;20261;-84
2022/01/11 06:41:36;;;;;;;10.93;7.40;;;3.00;83.20;;;1.62;79.19;96537.25;4001596;34;20420;-85
2022/01/11 06:44:09;;;;;;;10.68;6.55;;;2.90;83.10;;;1.63;79.02;96538.06;4019170;34;20524;-85
2022/01/11 06:46:37;;;;;;;10.38;6.85;;;2.90;83.30;;;1.62;79.16;96545.34;4000168;34;20079;-85
2022/01/11 06:49:04;;;;;;;11.65;7.13;;;2.90;83.20;;;1.63;79.05;96543.47;4019432;34;20306;-84
2022/01/11 06:51:31;;;;;;;12.52;7.00;;;2.90;83.20;;;1.62;78.58;96558.00;4019919;34;20300;-85
2022/01/11 06:53:57;;;;;;;10.02;6.85;;;2.90;83.00;;;1.62;79.09;96553.44;4021335;34;20062;-85
2022/01/11 06:56:24;;;;;;;11.80;7.25;;;2.90;83.30;;;1.62;78.85;96558.00;3999389;34;20576;-84
2022/01/11 06:58:56;;;;;;;11.95;7.07;;;2.90;83.00;;;1.62;78.49;96563.38;4045131;34;20586;-85
2022/01/11 07:01:22;;;;;;;11.80;6.65;;;3.00;82.70;;;1.61;78.96;96548.25;3979470;34;20083;-85
2022/01/11 07:03:51;;;;;;;11.52;6.90;;;3.00;83.30;;;1.61;78.95;96572.56;4001625;34;20290;-85
2022/01/11 07:06:25;;;;;;;11.45;6.82;;;2.90;83.20;;;1.62;78.74;96566.94;4023513;34;20000;-85
2022/01/11 07:08:52;;;;;;;12.10;6.97;;;2.90;83.30;;;1.61;79.18;96572.56;4022505;34;20008;-85
2022/01/11 07:11:22;;;;;;;12.07;7.53;;;2.90;83.30;;;1.60;79.16;96570.88;4002101;34;20342;-85
2022/01/11 07:13:49;;;;;;;13.25;7.70;;;2.90;83.20;;;1.61;78.80;96578.75;4018201;34;20371;-85
2022/01/11 07:16:16;;;;;;;10.45;6.75;;;2.90;83.10;;;1.62;79.03;96585.81;4037276;34;20352;-85
2022/01/11 07:18:44;;;;;;;11.32;7.03;;;2.90;83.20;;;1.60;79.10;96590.59;4038159;34;20009;-85
2022/01/11 07:21:11;;;;;;;11.20;6.75;;;3.00;83.20;;;1.61;78.97;96580.66;4037447;34;20055;-84
2022/01/11 07:23:38;;;;;;;10.00;6.78;;;3.00;83.00;;;1.63;78.83;96597.44;4037661;34;20296;-84
2022/01/11 07:26:07;;;;;;;13.10;7.38;;;2.90;83.20;;;1.61;79.20;96589.56;4037298;34;20009;-85
2022/01/11 07:28:37;;;;;;;10.57;6.70;;;3.00;83.40;;;1.61;78.64;96599.53;4016222;34;20649;-84
2022/01/11 07:31:07;;;;;;;13.05;7.68;;;2.90;83.00;;;1.61;78.88;96607.63;4059386;34;20007;-85
2022/01/11 07:33:41;;;;;;;11.50;7.00;;;2.90;83.00;;;1.61;79.36;96604.94;4018143;34;20290;-85
2022/01/11 07:36:08;;;;;;;11.70;7.05;;;2.90;83.30;;;1.62;78.92;96611.97;4039207;34;20401;-84
2022/01/11 07:38:35;;;;;;;12.40;6.78;;;2.90;83.10;;;1.62;78.73;96620.06;4033044;34;20005;-85
2022/01/11 07:41:07;;;;;;;12.20;6.82;;;3.00;82.90;;;1.62;79.05;96618.22;4019180;34;20076;-85
2022/01/11 07:43:43;;;;;;;12.55;6.70;;;3.00;83.20;;;1.62;78.95;96617.38;4023638;34;20640;-84
2022/01/11 07:46:31;;;;;;;11.25;7.35;;;3.00;83.10;;;1.62;78.96;96622.75;4015956;34;20236;-85
2022/01/11 07:48:59;;;;;;;11.27;7.55;;;2.90;83.40;;;1.64;79.28;96631.50;4001179;34;20088;-85
2022/01/11 07:51:26;;;;;;;10.68;6.78;;;3.00;83.20;;;1.63;79.01;96629.81;4000462;34;20234;-84
2022/01/11 07:53:53;;;;;;;9.80;6.93;;;2.90;83.20;;;1.62;78.48;96630.84;4020554;34;20000;-85
2022/01/11 07:56:21;;;;;;;11.25;7.10;;;2.90;82.90;;;1.62;78.59;96637.09;4020175;34;20329;-85
2022/01/11 07:58:48;;;;;;;11.45;6.95;;;3.00;83.10;;;1.62;78.98;96639.81;4035289;34;20284;-85
2022/01/11 08:01:17;;;;;;;12.48;7.38;;;2.90;83.10;;;1.61;79.02;96632.75;4020484;34;20314;-84
2022/01/11 08:03:48;;;;;;;11.27;7.15;;;2.90;83.10;;;1.62;78.58;96638.94;4031929;34;20051;-84
2022/01/11 08:06:26;;;;;;;10.57;7.28;;;2.90;82.90;;;1.61;78.81;96640.84;4017495;34;20008;-85
2022/01/11 08:09:02;;;;;;;12.10;7.03;;;2.90;83.30;;;1.60;78.90;96641.03;4015326;34;20023;-85
2022/01/11 08:11:28;;;;;;;12.23;6.90;;;3.00;83.10;;;1.62;78.56;96638.94;3990350;34;20008;-85
2022/01/11 08:13:55;;;;;;;12.93;7.55;;;3.00;82.90;;;1.60;78.87;96632.94;4012732;34;20591;-85
2022/01/11 08:16:21;;;;;;;11.95;6.57;;;2.90;83.00;;;1.61;78.74;96648.94;4013199;34;20008;-85
2022/01/11 08:18:49;;;;;;;10.82;7.50;;;2.90;83.00;;;1.62;78.83;96641.66;4010093;34;20323;-85
2022/01/11 08:21:17;;;;;;;10.82;6.72;;;3.00;83.10;;;1.62;78.81;96650.59;4030503;34;20574;-84
2022/01/11 08:23:43;;;;;;;12.40;7.30;;;2.90;83.10;;;1.62;78.83;96649.75;4009019;34;20032;-84
2022/01/11 08:26:10;;;;;;;11.23;7.07;;;3.00;83.00;;;1.63;79.02;96651.41;4008243;34;20005;-85
2022/01/11 08:28:39;;;;;;;11.00;7.23;;;3.00;82.90;;;1.63;78.71;96660.34;3994627;34;20326;-85
2022/01/11 08:31:07;;;;;;;11.23;6.95;;;3.00;83.00;;;1.64;78.59;96666.56;4032604;34;20391;-84
2022/01/11 08:33:38;;;;;;;14.95;7.65;;;3.00;82.80;;;1.63;78.79;96667.59;4031157;34;20290;-85
2022/01/11 08:36:06;;;;;;;10.85;6.93;;;3.00;83.00;;;1.62;78.91;96661.38;4008984;34;20564;-85
2022/01/11 08:38:35;;;;;;;12.32;7.70;;;3.00;82.90;;;1.62;78.40;96661.38;4008784;34;20280;-84
2022/01/11 08:41:03;;;;;;;13.10;7.45;;;3.00;83.00;;;1.62;78.60;96661.38;3986282;34;20108;-85
2022/01/11 08:43:29;;;;;;;12.75;7.22;;;3.00;82.40;;;1.64;78.18;96663.88;4031287;34;20220;-85
2022/01/11 08:45:56;;;;;;;12.32;7.15;;;3.00;82.60;;;1.65;78.53;96670.94;4009056;34;20071;-85
2022/01/11 08:48:22;;;;;;;10.48;6.80;;;3.00;83.30;;;1.63;78.46;96665.75;4031762;34;20080;-85
2022/01/11 08:50:59;;;;;;;10.30;6.18;;;3.00;82.40;;;1.62;78.63;96666.78;4014139;34;20308;-86
2022/01/11 08:53:29;;;;;;;10.93;7.05;;;3.00;82.50;;;1.62;78.43;96666.78;3989936;34;20316;-85
2022/01/11 08:55:57;;;;;;;11.23;7.03;;;3.00;82.40;;;1.63;78.05;96681.09;3991610;34;20084;-85
2022/01/11 08:58:24;;;;;;;10.82;6.30;;;3.00;82.30;;;1.63;78.34;96670.31;4016386;34;20008;-84
2022/01/11 09:00:52;;;;;;;10.35;7.13;;;3.00;82.50;;;1.62;78.51;96664.09;3974573;34;20189;-85
2022/01/11 09:03:23;;;;;;;11.93;7.00;;;3.00;82.50;;;1.61;78.16;96664.31;3991671;34;20390;-85
2022/01/11 09:05:53;;;;;;;11.82;7.22;;;3.00;82.70;;;1.61;78.28;96667.81;4015203;34;20064;-84
2022/01/11 09:08:20;;;;;;;13.15;6.70;;;3.00;82.50;;;1.60;78.09;96668.84;4016593;34;20827;-85
2022/01/11 09:10:47;;;;;;;12.93;7.30;;;2.90;82.30;;;1.62;78.54;96658.69;4038513;34;20280;-85
2022/01/11 09:13:15;;;;;;;10.93;7.10;;;3.00;82.40;;;1.62;78.14;96655.16;4038935;34;19992;-85
2022/01/11 09:15:42;;;;;;;10.57;6.75;;;2.90;82.20;;;1.62;78.23;96657.84;4034979;34;20306;-85
2022/01/11 09:18:10;;;;;;;9.43;6.30;;;2.90;82.20;;;1.61;78.09;96648.94;4017182;34;20208;-85
2022/01/11 09:20:38;;;;;;;10.13;6.75;;;3.00;82.20;;;1.61;77.66;96648.94;4012630;34;20290;-85
2022/01/11 09:23:05;;;;;;;10.93;6.45;;;2.90;81.70;;;1.60;78.34;96651.84;4010634;34;20618;-85
2022/01/11 09:25:34;;;;;;;11.10;7.68;;;2.90;82.50;;;1.60;77.85;96646.44;3996015;34;20298;-85
2022/01/11 09:28:05;;;;;;;11.27;6.28;;;2.90;82.40;;;1.60;77.92;96649.97;4018523;34;20296;-85
2022/01/11 09:30:32;;;;;;;10.48;6.50;;;3.00;82.00;;;1.62;78.24;96660.53;4016464;34;20287;-85
2022/01/11 09:33:00;;;;;;;10.32;6.38;;;2.90;82.50;;;1.60;78.23;96654.53;3996203;34;20270;-85
2022/01/11 09:35:28;;;;;;;11.48;6.85;;;2.90;82.70;;;1.60;77.80;96657.25;4010027;34;20339;-85
2022/01/11 09:38:07;;;;;;;9.90;6.43;;;3.00;82.20;;;1.61;78.36;96656.22;4023041;34;19993;-85
2022/01/11 09:40:34;;;;;;;10.85;7.07;;;2.90;82.30;;;1.62;78.18;96649.75;4062458;34;20532;-85
2022/01/11 09:43:05;;;;;;;15.30;8.15;;;2.90;82.50;;;1.60;78.58;96654.53;4019306;34;20096;-84
2022/01/11 09:45:33;;;;;;;10.63;6.75;;;2.90;82.60;;;1.60;78.09;96654.53;3996795;34;20303;-85
2022/01/11 09:47:59;;;;;;;11.43;7.53;;;2.90;82.50;;;1.58;78.53;96649.31;3997066;34;20476;-85
2022/01/11 09:50:26;;;;;;;11.07;6.95;;;2.90;82.50;;;1.58;78.59;96653.91;3975840;34;20008;-85
2022/01/11 09:53:03;;;;;;;12.70;6.93;;;2.90;82.70;;;1.59;78.23;96648.28;4001640;34;20031;-85
2022/01/11 09:55:31;;;;;;;11.05;7.38;;;2.90;82.40;;;1.60;78.65;96652.66;3954821;34;20008;-84
2022/01/11 09:57:58;;;;;;;10.43;6.60;;;3.00;82.70;;;1.58;78.50;96652.03;3975212;34;20298;-85
2022/01/11 10:00:43;;;;;;;12.88;6.95;;;2.90;82.70;;;1.60;78.20;96659.94;4023174;34;20284;-84
2022/01/11 10:03:57;;;;;;;11.20;7.05;;;2.90;82.40;;;1.60;78.45;96652.66;4007585;34;20287;-85
2022/01/11 10:06:28;;;;;;;11.13;7.25;;;2.90;82.70;;;1.60;78.12;96657.25;4065982;34;20526;-85
2022/01/11 10:09:17;;;;;;;12.23;7.50;;;2.90;82.50;;;1.60;78.50;96663.44;3999639;34;20286;-85
2022/01/11 10:11:56;;;;;;;13.60;7.88;;;2.90;82.70;;;1.61;78.16;96661.59;4000417;34;20039;-85
2022/01/11 10:14:33;;;;;;;12.82;7.47;;;2.90;82.50;;;1.61;78.14;96667.00;3999990;34;20321;-85
2022/01/11 10:17:29;;;;;;;13.90;7.40;;;2.90;82.30;;;1.60;78.25;96673.44;4004175;34;20223;-85
2022/01/11 10:20:20;;;;;;;11.20;7.25;;;2.90;82.60;;;1.60;78.42;96668.03;3983890;34;20529;-85
2022/01/11 10:23:05;;;;;;;11.63;7.28;;;2.90;82.70;;;1.59;78.28;96669.06;3994617;34;20308;-85
2022/01/11 10:25:51;;;;;;;11.33;6.90;;;2.90;82.50;;;1.59;78.23;96672.59;4026934;34;20298;-83
2022/01/11 10:28:24;;;;;;;10.73;7.38;;;2.90;82.50;;;1.61;78.06;96669.69;4047062;34;19992;-85
2022/01/11 10:30:51;;;;;;;12.80;8.02;;;2.90;82.40;;;1.61;78.42;96667.00;4002955;34;20347;-84
2022/01/11 10:33:17;;;;;;;11.98;7.15;;;2.90;82.70;;;1.60;78.34;96659.94;4001477;34;20855;-85
2022/01/11 10:35:46;;;;;;;11.70;7.32;;;3.00;82.60;;;1.61;78.41;96669.69;4004765;34;19989;-85
2022/01/11 10:38:29;;;;;;;11.88;7.18;;;2.90;82.50;;;1.59;78.41;96667.19;4025556;34;20617;-85
2022/01/11 10:41:01;;;;;;;10.93;7.10;;;3.00;82.60;;;1.59;78.07;96664.47;4025748;34;20319;-85